Aérodrome :
LOGIN :

S'inscrire | Disclaimer

   EN    FR    IT 

 










Légende :    VFR   VFR Marginal   IFR   IFR Intensif   IFR Très Intensif
Visi : 
Plafond : 
>= 8 km
>= 3000ft
5 à 8 km
1000 à 3000 ft
1500m à 5 km
500 à 1000 ft
800 à 1500m
200 à 500 ft
< 800m
< 200 ft
Symboles :   Orages  Brouillard  Fortes neiges  Fortes précipitations  Vent > 20 kt
SIGMETs :   Divers  Orages  Givrage  Turbulence  Onde Orograph.  Cendres Volcan.






- Altitude de l'aérodrome : 776 ft
- Code IATA : RMS


ETAR - Ramstein Air Base

DERNIER METAR :
  • 240111Z 00000KT 9999 OVC007 00/M01 A3029 RMK AO2A SLP275 FZRANO $

METARs EXPIRÉS :
  • 240056Z 00000KT 9999 OVC008 00/00 A3029 RMK AO2A SLP275 T10041005 FZRANO $
  • 240026Z 16003KT 9999 OVC008 00/00 A3029 RMK AO2A SLP275 FZRANO $
  • 232356Z 13003KT 9999 OVC009 00/00 A3030 RMK AO2A CIG 008 RWY26 SLP278 T10011002 10004 21001 55003 FZRANO $
  • 232256Z 15003KT 9999 OVC009 00/00 A3031 RMK AO2A SLP282 T00011002 400071013 FZRANO $

TAF TAF ETAR
Valide du 23 à 18h jusqu'au 25 à 00h UTC


231800Z 2318/2424 08006KT 8000 BR OVC010 QNH3031INS
BECMG 2321/2322 VRB04KT 3200 BR OVC008 QNH3028INS
BECMG 2401/2402 VRB04KT 1600 BR OVC005 QNH3025INS
BECMG 2409/2410 VRB04KT 5000 BR BKN008 QNH3020INS
BECMG 2412/2413 VRB04KT 9999 NSW SCT010 QNH3020INS
BECMG 2417/2418 VRB04KT 5000 BR SCT007 BKN010 QNH3019INS
BECMG 2420/2421 VRB03KT 3200 BR OVC007 QNH3018INS TX03/2414Z TNM02/2407Z



MET'MAP, la Météo Aéronautique d'un coup d'oeil ! - Copyright ORBIFLY Décembre 2007 - Disclaimer

ORBIFLY MET'MAP TEAM :

Programmation & Développement : Alexandra Zaïnal
Sur une idée originale de : Baudouin d'Aumeries
Assistance à la programmation : Marc-Olivier Méhu
Soutien technique & logistique : Manuel Goepfert

Contact : metmap@orbifly.com




SOURCES & CREDITS :

   NOAA